sensor_id;sensor_type;location;lat;lon;timestamp;temperature;humidity
20380;DHT22;10349;48.666;8.948;2024-01-06T00:02:15;3.50;99.90
20380;DHT22;10349;48.666;8.948;2024-01-06T00:04:40;3.50;99.90
20380;DHT22;10349;48.666;8.948;2024-01-06T00:07:06;3.50;99.90
20380;DHT22;10349;48.666;8.948;2024-01-06T00:09:32;3.50;99.90
20380;DHT22;10349;48.666;8.948;2024-01-06T00:11:57;3.50;99.90
20380;DHT22;10349;48.666;8.948;2024-01-06T00:14:24;3.40;99.90
20380;DHT22;10349;48.666;8.948;2024-01-06T00:16:50;3.40;99.90
20380;DHT22;10349;48.666;8.948;2024-01-06T00:19:16;3.30;99.90
20380;DHT22;10349;48.666;8.948;2024-01-06T00:21:43;3.20;99.90
20380;DHT22;10349;48.666;8.948;2024-01-06T00:24:09;3.10;99.90
20380;DHT22;10349;48.666;8.948;2024-01-06T00:26:35;3.10;99.90
20380;DHT22;10349;48.666;8.948;2024-01-06T00:29:00;3.10;99.90
20380;DHT22;10349;48.666;8.948;2024-01-06T00:31:26;3.10;99.90
20380;DHT22;10349;48.666;8.948;2024-01-06T00:33:52;3.10;99.90
20380;DHT22;10349;48.666;8.948;2024-01-06T00:36:17;3.20;99.90
20380;DHT22;10349;48.666;8.948;2024-01-06T00:38:43;3.20;99.90
20380;DHT22;10349;48.666;8.948;2024-01-06T00:41:09;3.20;99.90
20380;DHT22;10349;48.666;8.948;2024-01-06T00:43:35;3.20;99.90
20380;DHT22;10349;48.666;8.948;2024-01-06T00:46:01;3.30;99.90
20380;DHT22;10349;48.666;8.948;2024-01-06T00:48:26;3.30;99.90
20380;DHT22;10349;48.666;8.948;2024-01-06T00:50:52;3.30;99.90
20380;DHT22;10349;48.666;8.948;2024-01-06T00:53:17;3.30;99.90
20380;DHT22;10349;48.666;8.948;2024-01-06T00:55:43;3.30;99.90
20380;DHT22;10349;48.666;8.948;2024-01-06T00:58:09;3.30;99.90
20380;DHT22;10349;48.666;8.948;2024-01-06T01:00:35;3.30;99.90
20380;DHT22;10349;48.666;8.948;2024-01-06T01:03:00;3.30;99.90
20380;DHT22;10349;48.666;8.948;2024-01-06T01:05:27;3.30;99.90
20380;DHT22;10349;48.666;8.948;2024-01-06T01:07:53;3.30;99.90
20380;DHT22;10349;48.666;8.948;2024-01-06T01:10:18;3.40;99.90
20380;DHT22;10349;48.666;8.948;2024-01-06T01:12:44;3.40;99.90
20380;DHT22;10349;48.666;8.948;2024-01-06T01:15:09;3.30;99.90
20380;DHT22;10349;48.666;8.948;2024-01-06T01:17:35;3.30;99.90
20380;DHT22;10349;48.666;8.948;2024-01-06T01:20:02;3.20;99.90
20380;DHT22;10349;48.666;8.948;2024-01-06T01:22:28;3.30;99.90
20380;DHT22;10349;48.666;8.948;2024-01-06T01:24:53;3.30;99.90
20380;DHT22;10349;48.666;8.948;2024-01-06T01:27:19;3.20;99.90
20380;DHT22;10349;48.666;8.948;2024-01-06T01:29:45;3.20;99.90
20380;DHT22;10349;48.666;8.948;2024-01-06T01:32:10;3.20;99.90
20380;DHT22;10349;48.666;8.948;2024-01-06T01:34:36;3.20;99.90
20380;DHT22;10349;48.666;8.948;2024-01-06T01:37:02;3.20;99.90
20380;DHT22;10349;48.666;8.948;2024-01-06T01:39:27;3.20;99.90
20380;DHT22;10349;48.666;8.948;2024-01-06T01:41:53;3.10;99.90
20380;DHT22;10349;48.666;8.948;2024-01-06T01:44:18;3.20;99.90
20380;DHT22;10349;48.666;8.948;2024-01-06T01:46:44;3.10;99.90
20380;DHT22;10349;48.666;8.948;2024-01-06T01:49:11;3.20;99.90
20380;DHT22;10349;48.666;8.948;2024-01-06T01:51:37;3.20;99.90
20380;DHT22;10349;48.666;8.948;2024-01-06T01:54:05;3.20;99.90
20380;DHT22;10349;48.666;8.948;2024-01-06T01:56:32;3.20;99.90
20380;DHT22;10349;48.666;8.948;2024-01-06T01:59:12;3.20;99.90
20380;DHT22;10349;48.666;8.948;2024-01-06T02:01:41;3.20;99.90
20380;DHT22;10349;48.666;8.948;2024-01-06T02:04:08;3.20;99.90
20380;DHT22;10349;48.666;8.948;2024-01-06T02:06:34;3.10;99.90
20380;DHT22;10349;48.666;8.948;2024-01-06T02:09:00;3.10;99.90
20380;DHT22;10349;48.666;8.948;2024-01-06T02:11:26;3.10;99.90
20380;DHT22;10349;48.666;8.948;2024-01-06T02:13:51;3.20;99.90
20380;DHT22;10349;48.666;8.948;2024-01-06T02:16:17;3.10;99.90
20380;DHT22;10349;48.666;8.948;2024-01-06T02:18:43;3.10;99.90
20380;DHT22;10349;48.666;8.948;2024-01-06T02:21:09;3.10;99.90
20380;DHT22;10349;48.666;8.948;2024-01-06T02:23:36;3.00;99.90
20380;DHT22;10349;48.666;8.948;2024-01-06T02:26:02;3.00;99.90
20380;DHT22;10349;48.666;8.948;2024-01-06T02:28:28;2.90;99.90
20380;DHT22;10349;48.666;8.948;2024-01-06T02:30:54;2.90;99.90
20380;DHT22;10349;48.666;8.948;2024-01-06T02:33:20;2.90;99.90
20380;DHT22;10349;48.666;8.948;2024-01-06T02:35:46;2.90;99.90
20380;DHT22;10349;48.666;8.948;2024-01-06T02:38:12;2.90;99.90
20380;DHT22;10349;48.666;8.948;2024-01-06T02:40:37;2.90;99.90
20380;DHT22;10349;48.666;8.948;2024-01-06T02:43:03;2.90;99.90
20380;DHT22;10349;48.666;8.948;2024-01-06T02:45:29;2.90;99.90
20380;DHT22;10349;48.666;8.948;2024-01-06T02:47:54;2.90;99.90
20380;DHT22;10349;48.666;8.948;2024-01-06T02:50:20;2.90;99.90
20380;DHT22;10349;48.666;8.948;2024-01-06T02:52:46;2.90;99.90
20380;DHT22;10349;48.666;8.948;2024-01-06T02:55:12;2.90;99.90
20380;DHT22;10349;48.666;8.948;2024-01-06T02:57:38;2.90;99.90
20380;DHT22;10349;48.666;8.948;2024-01-06T03:00:04;3.00;99.90
20380;DHT22;10349;48.666;8.948;2024-01-06T03:02:30;3.00;99.90
20380;DHT22;10349;48.666;8.948;2024-01-06T03:04:55;2.90;99.90
20380;DHT22;10349;48.666;8.948;2024-01-06T03:07:22;2.90;99.90
20380;DHT22;10349;48.666;8.948;2024-01-06T03:09:47;2.90;99.90
20380;DHT22;10349;48.666;8.948;2024-01-06T03:12:13;2.80;99.90
20380;DHT22;10349;48.666;8.948;2024-01-06T03:14:39;2.80;99.90
20380;DHT22;10349;48.666;8.948;2024-01-06T03:17:04;2.90;99.90
20380;DHT22;10349;48.666;8.948;2024-01-06T03:19:31;2.90;99.90
20380;DHT22;10349;48.666;8.948;2024-01-06T03:21:56;3.00;99.90
20380;DHT22;10349;48.666;8.948;2024-01-06T03:24:23;3.00;99.90
20380;DHT22;10349;48.666;8.948;2024-01-06T03:26:49;3.00;99.90
20380;DHT22;10349;48.666;8.948;2024-01-06T03:29:16;2.90;99.90
20380;DHT22;10349;48.666;8.948;2024-01-06T03:31:45;2.90;99.90
20380;DHT22;10349;48.666;8.948;2024-01-06T03:34:11;2.90;99.90
20380;DHT22;10349;48.666;8.948;2024-01-06T03:36:40;2.90;99.90
20380;DHT22;10349;48.666;8.948;2024-01-06T03:39:06;2.90;99.90
20380;DHT22;10349;48.666;8.948;2024-01-06T03:41:32;2.90;99.90
20380;DHT22;10349;48.666;8.948;2024-01-06T03:43:58;2.90;99.90
20380;DHT22;10349;48.666;8.948;2024-01-06T03:46:24;2.90;99.90
20380;DHT22;10349;48.666;8.948;2024-01-06T03:48:50;2.90;99.90
20380;DHT22;10349;48.666;8.948;2024-01-06T03:51:16;2.90;99.90
20380;DHT22;10349;48.666;8.948;2024-01-06T03:53:41;3.00;99.90
20380;DHT22;10349;48.666;8.948;2024-01-06T03:56:07;3.00;99.90
20380;DHT22;10349;48.666;8.948;2024-01-06T03:58:33;2.90;99.90
20380;DHT22;10349;48.666;8.948;2024-01-06T04:00:59;2.90;99.90
20380;DHT22;10349;48.666;8.948;2024-01-06T04:03:25;2.90;99.90
20380;DHT22;10349;48.666;8.948;2024-01-06T04:05:52;2.90;99.90
20380;DHT22;10349;48.666;8.948;2024-01-06T04:08:18;2.90;99.90
20380;DHT22;10349;48.666;8.948;2024-01-06T04:10:44;2.90;99.90
20380;DHT22;10349;48.666;8.948;2024-01-06T04:13:11;2.90;99.90
20380;DHT22;10349;48.666;8.948;2024-01-06T04:15:36;2.90;99.90
20380;DHT22;10349;48.666;8.948;2024-01-06T04:18:03;2.80;99.90
20380;DHT22;10349;48.666;8.948;2024-01-06T04:20:29;2.80;99.90
20380;DHT22;10349;48.666;8.948;2024-01-06T04:22:55;2.80;99.90
20380;DHT22;10349;48.666;8.948;2024-01-06T04:25:21;2.80;99.90
20380;DHT22;10349;48.666;8.948;2024-01-06T04:27:47;2.80;99.90
20380;DHT22;10349;48.666;8.948;2024-01-06T04:30:14;2.90;99.90
20380;DHT22;10349;48.666;8.948;2024-01-06T04:32:40;2.90;99.90
20380;DHT22;10349;48.666;8.948;2024-01-06T04:35:06;2.90;99.90
20380;DHT22;10349;48.666;8.948;2024-01-06T04:37:32;2.80;99.90
20380;DHT22;10349;48.666;8.948;2024-01-06T04:39:58;2.80;99.90
20380;DHT22;10349;48.666;8.948;2024-01-06T04:42:23;2.80;99.90
20380;DHT22;10349;48.666;8.948;2024-01-06T04:44:50;2.80;99.90
20380;DHT22;10349;48.666;8.948;2024-01-06T04:47:15;2.90;99.90
20380;DHT22;10349;48.666;8.948;2024-01-06T04:49:41;2.90;99.90
20380;DHT22;10349;48.666;8.948;2024-01-06T04:52:07;2.70;99.90
20380;DHT22;10349;48.666;8.948;2024-01-06T04:54:32;2.70;99.90
20380;DHT22;10349;48.666;8.948;2024-01-06T04:56:58;2.80;99.90
20380;DHT22;10349;48.666;8.948;2024-01-06T04:59:24;2.70;99.90
20380;DHT22;10349;48.666;8.948;2024-01-06T05:01:51;2.70;99.90
20380;DHT22;10349;48.666;8.948;2024-01-06T05:04:17;2.70;99.90
20380;DHT22;10349;48.666;8.948;2024-01-06T05:06:43;2.70;99.90
20380;DHT22;10349;48.666;8.948;2024-01-06T05:09:09;2.70;99.90
20380;DHT22;10349;48.666;8.948;2024-01-06T05:11:34;2.70;99.90
20380;DHT22;10349;48.666;8.948;2024-01-06T05:14:00;2.70;99.90
20380;DHT22;10349;48.666;8.948;2024-01-06T05:16:26;2.70;99.90
20380;DHT22;10349;48.666;8.948;2024-01-06T05:18:53;2.70;99.90
20380;DHT22;10349;48.666;8.948;2024-01-06T05:21:19;2.70;99.90
20380;DHT22;10349;48.666;8.948;2024-01-06T05:23:45;2.70;99.90
20380;DHT22;10349;48.666;8.948;2024-01-06T05:26:10;2.70;99.90
20380;DHT22;10349;48.666;8.948;2024-01-06T05:28:37;2.70;99.90
20380;DHT22;10349;48.666;8.948;2024-01-06T05:31:02;2.70;99.90
20380;DHT22;10349;48.666;8.948;2024-01-06T05:33:28;2.70;99.90
20380;DHT22;10349;48.666;8.948;2024-01-06T05:35:54;2.70;99.90
20380;DHT22;10349;48.666;8.948;2024-01-06T05:38:19;2.80;99.90
20380;DHT22;10349;48.666;8.948;2024-01-06T05:40:45;2.80;99.90
20380;DHT22;10349;48.666;8.948;2024-01-06T05:43:11;2.80;99.90
20380;DHT22;10349;48.666;8.948;2024-01-06T05:45:36;2.90;99.90
20380;DHT22;10349;48.666;8.948;2024-01-06T05:48:05;2.80;99.90
20380;DHT22;10349;48.666;8.948;2024-01-06T05:50:33;2.80;99.90
20380;DHT22;10349;48.666;8.948;2024-01-06T05:52:59;2.80;99.90
20380;DHT22;10349;48.666;8.948;2024-01-06T05:55:25;2.90;99.90
20380;DHT22;10349;48.666;8.948;2024-01-06T05:57:50;2.90;99.90
20380;DHT22;10349;48.666;8.948;2024-01-06T06:00:16;2.90;99.90
20380;DHT22;10349;48.666;8.948;2024-01-06T06:02:42;3.00;99.90
20380;DHT22;10349;48.666;8.948;2024-01-06T06:05:09;3.00;99.90
20380;DHT22;10349;48.666;8.948;2024-01-06T06:07:34;3.00;99.90
20380;DHT22;10349;48.666;8.948;2024-01-06T06:10:09;3.10;99.90
20380;DHT22;10349;48.666;8.948;2024-01-06T06:12:36;3.10;99.90
20380;DHT22;10349;48.666;8.948;2024-01-06T06:15:05;3.10;99.90
20380;DHT22;10349;48.666;8.948;2024-01-06T06:17:32;3.10;99.90
20380;DHT22;10349;48.666;8.948;2024-01-06T06:19:58;3.10;99.90
20380;DHT22;10349;48.666;8.948;2024-01-06T06:22:25;3.10;99.90
20380;DHT22;10349;48.666;8.948;2024-01-06T06:24:56;3.10;99.90
20380;DHT22;10349;48.666;8.948;2024-01-06T06:27:23;3.10;99.90
20380;DHT22;10349;48.666;8.948;2024-01-06T06:29:48;3.00;99.90
20380;DHT22;10349;48.666;8.948;2024-01-06T06:32:14;3.10;99.90
20380;DHT22;10349;48.666;8.948;2024-01-06T06:34:39;3.10;99.90
20380;DHT22;10349;48.666;8.948;2024-01-06T06:37:05;3.00;99.90
20380;DHT22;10349;48.666;8.948;2024-01-06T06:39:32;3.00;99.90
20380;DHT22;10349;48.666;8.948;2024-01-06T06:41:58;3.10;99.90
20380;DHT22;10349;48.666;8.948;2024-01-06T06:44:24;3.10;99.90
20380;DHT22;10349;48.666;8.948;2024-01-06T06:46:49;3.10;99.90
20380;DHT22;10349;48.666;8.948;2024-01-06T06:49:16;3.10;99.90
20380;DHT22;10349;48.666;8.948;2024-01-06T06:51:42;3.20;99.90
20380;DHT22;10349;48.666;8.948;2024-01-06T06:54:12;3.10;99.90
20380;DHT22;10349;48.666;8.948;2024-01-06T06:56:38;3.10;99.90
20380;DHT22;10349;48.666;8.948;2024-01-06T06:59:04;3.20;99.90
20380;DHT22;10349;48.666;8.948;2024-01-06T07:01:30;3.20;99.90
20380;DHT22;10349;48.666;8.948;2024-01-06T07:03:56;3.20;99.90
20380;DHT22;10349;48.666;8.948;2024-01-06T07:06:22;3.20;99.90
20380;DHT22;10349;48.666;8.948;2024-01-06T07:08:47;3.20;99.90
20380;DHT22;10349;48.666;8.948;2024-01-06T07:11:13;3.30;99.90
20380;DHT22;10349;48.666;8.948;2024-01-06T07:13:40;3.30;99.90
20380;DHT22;10349;48.666;8.948;2024-01-06T07:16:06;3.30;99.90
20380;DHT22;10349;48.666;8.948;2024-01-06T07:18:32;3.30;99.90
20380;DHT22;10349;48.666;8.948;2024-01-06T07:20:59;3.30;99.90
20380;DHT22;10349;48.666;8.948;2024-01-06T07:23:25;3.30;99.90
20380;DHT22;10349;48.666;8.948;2024-01-06T07:25:51;3.30;99.90
20380;DHT22;10349;48.666;8.948;2024-01-06T07:28:16;3.30;99.90
20380;DHT22;10349;48.666;8.948;2024-01-06T07:30:42;3.30;99.90
20380;DHT22;10349;48.666;8.948;2024-01-06T07:33:08;3.40;99.90
20380;DHT22;10349;48.666;8.948;2024-01-06T07:35:33;3.40;99.90
20380;DHT22;10349;48.666;8.948;2024-01-06T07:37:59;3.40;99.90
20380;DHT22;10349;48.666;8.948;2024-01-06T07:40:25;3.40;99.90
20380;DHT22;10349;48.666;8.948;2024-01-06T07:42:51;3.40;99.90
20380;DHT22;10349;48.666;8.948;2024-01-06T07:45:17;3.40;99.90
20380;DHT22;10349;48.666;8.948;2024-01-06T07:47:42;3.50;99.90
20380;DHT22;10349;48.666;8.948;2024-01-06T07:50:09;3.40;99.90
20380;DHT22;10349;48.666;8.948;2024-01-06T07:52:35;3.50;99.90
20380;DHT22;10349;48.666;8.948;2024-01-06T07:55:00;3.40;99.90
20380;DHT22;10349;48.666;8.948;2024-01-06T07:57:26;3.40;99.90
20380;DHT22;10349;48.666;8.948;2024-01-06T07:59:54;3.40;99.90
20380;DHT22;10349;48.666;8.948;2024-01-06T08:02:20;3.40;99.90
20380;DHT22;10349;48.666;8.948;2024-01-06T08:04:45;3.40;99.90
20380;DHT22;10349;48.666;8.948;2024-01-06T08:07:11;3.50;99.90
20380;DHT22;10349;48.666;8.948;2024-01-06T08:09:36;3.40;99.90
20380;DHT22;10349;48.666;8.948;2024-01-06T08:12:03;3.40;99.90
20380;DHT22;10349;48.666;8.948;2024-01-06T08:14:29;3.40;99.90
20380;DHT22;10349;48.666;8.948;2024-01-06T08:16:54;3.40;99.90
20380;DHT22;10349;48.666;8.948;2024-01-06T08:19:20;3.40;99.90
20380;DHT22;10349;48.666;8.948;2024-01-06T08:21:48;3.40;99.90
20380;DHT22;10349;48.666;8.948;2024-01-06T08:24:14;3.50;99.90
20380;DHT22;10349;48.666;8.948;2024-01-06T08:26:39;3.50;99.90
20380;DHT22;10349;48.666;8.948;2024-01-06T08:29:05;3.60;99.90
20380;DHT22;10349;48.666;8.948;2024-01-06T08:31:30;3.60;99.90
20380;DHT22;10349;48.666;8.948;2024-01-06T08:33:56;3.70;99.90
20380;DHT22;10349;48.666;8.948;2024-01-06T08:36:22;3.60;99.90
20380;DHT22;10349;48.666;8.948;2024-01-06T08:38:47;3.70;99.90
20380;DHT22;10349;48.666;8.948;2024-01-06T08:41:13;3.70;99.90
20380;DHT22;10349;48.666;8.948;2024-01-06T08:43:39;3.70;99.90
20380;DHT22;10349;48.666;8.948;2024-01-06T08:46:07;3.70;99.90
20380;DHT22;10349;48.666;8.948;2024-01-06T08:48:33;3.70;99.90
20380;DHT22;10349;48.666;8.948;2024-01-06T08:50:58;3.70;99.90
20380;DHT22;10349;48.666;8.948;2024-01-06T08:53:24;3.70;99.90
20380;DHT22;10349;48.666;8.948;2024-01-06T08:55:51;3.80;99.90
20380;DHT22;10349;48.666;8.948;2024-01-06T08:58:17;3.80;99.90
20380;DHT22;10349;48.666;8.948;2024-01-06T09:00:44;3.70;99.90
20380;DHT22;10349;48.666;8.948;2024-01-06T09:03:09;3.80;99.90
20380;DHT22;10349;48.666;8.948;2024-01-06T09:05:35;3.80;99.90
20380;DHT22;10349;48.666;8.948;2024-01-06T09:08:03;3.90;99.90
20380;DHT22;10349;48.666;8.948;2024-01-06T09:10:29;3.90;99.90
20380;DHT22;10349;48.666;8.948;2024-01-06T09:12:55;3.90;99.90
20380;DHT22;10349;48.666;8.948;2024-01-06T09:15:21;3.90;99.90
20380;DHT22;10349;48.666;8.948;2024-01-06T09:17:46;4.00;99.90
20380;DHT22;10349;48.666;8.948;2024-01-06T09:20:12;3.90;99.90
20380;DHT22;10349;48.666;8.948;2024-01-06T09:22:38;4.00;99.90
20380;DHT22;10349;48.666;8.948;2024-01-06T09:25:04;4.00;99.90
20380;DHT22;10349;48.666;8.948;2024-01-06T09:27:29;4.00;99.90
20380;DHT22;10349;48.666;8.948;2024-01-06T09:29:55;4.00;99.90
20380;DHT22;10349;48.666;8.948;2024-01-06T09:32:21;4.00;99.90
20380;DHT22;10349;48.666;8.948;2024-01-06T09:34:48;4.10;99.90
20380;DHT22;10349;48.666;8.948;2024-01-06T09:37:14;4.10;99.90
20380;DHT22;10349;48.666;8.948;2024-01-06T09:39:39;4.20;99.90
20380;DHT22;10349;48.666;8.948;2024-01-06T09:42:05;4.20;99.90
20380;DHT22;10349;48.666;8.948;2024-01-06T09:44:32;4.30;99.90
20380;DHT22;10349;48.666;8.948;2024-01-06T09:46:58;4.30;99.90
20380;DHT22;10349;48.666;8.948;2024-01-06T09:49:28;4.30;99.90
20380;DHT22;10349;48.666;8.948;2024-01-06T09:51:58;4.30;99.90
20380;DHT22;10349;48.666;8.948;2024-01-06T09:54:25;4.30;99.90
20380;DHT22;10349;48.666;8.948;2024-01-06T09:56:53;4.40;99.90
20380;DHT22;10349;48.666;8.948;2024-01-06T09:59:21;4.40;99.90
20380;DHT22;10349;48.666;8.948;2024-01-06T10:01:47;4.50;99.90
20380;DHT22;10349;48.666;8.948;2024-01-06T10:04:15;4.50;99.90
20380;DHT22;10349;48.666;8.948;2024-01-06T10:06:41;4.60;99.90
20380;DHT22;10349;48.666;8.948;2024-01-06T10:09:07;4.60;99.90
20380;DHT22;10349;48.666;8.948;2024-01-06T10:11:35;4.60;99.90
20380;DHT22;10349;48.666;8.948;2024-01-06T10:14:03;4.70;99.90
20380;DHT22;10349;48.666;8.948;2024-01-06T10:16:29;4.70;99.90
20380;DHT22;10349;48.666;8.948;2024-01-06T10:18:54;4.80;99.90
20380;DHT22;10349;48.666;8.948;2024-01-06T10:21:25;4.80;99.90
20380;DHT22;10349;48.666;8.948;2024-01-06T10:23:51;4.90;99.90
20380;DHT22;10349;48.666;8.948;2024-01-06T10:26:16;4.90;99.90
20380;DHT22;10349;48.666;8.948;2024-01-06T10:28:43;4.90;99.90
20380;DHT22;10349;48.666;8.948;2024-01-06T10:31:08;4.90;99.90
20380;DHT22;10349;48.666;8.948;2024-01-06T10:33:35;4.90;99.90
20380;DHT22;10349;48.666;8.948;2024-01-06T10:36:01;4.90;99.90
20380;DHT22;10349;48.666;8.948;2024-01-06T10:38:30;4.90;99.90
20380;DHT22;10349;48.666;8.948;2024-01-06T10:43:27;5.00;99.90
20380;DHT22;10349;48.666;8.948;2024-01-06T10:45:56;5.10;99.90
20380;DHT22;10349;48.666;8.948;2024-01-06T10:48:25;5.00;99.90
20380;DHT22;10349;48.666;8.948;2024-01-06T10:50:52;5.00;99.90
20380;DHT22;10349;48.666;8.948;2024-01-06T10:53:20;5.10;99.90
20380;DHT22;10349;48.666;8.948;2024-01-06T10:55:46;5.00;99.90
20380;DHT22;10349;48.666;8.948;2024-01-06T10:58:14;5.00;99.90
20380;DHT22;10349;48.666;8.948;2024-01-06T11:00:42;5.00;99.90
20380;DHT22;10349;48.666;8.948;2024-01-06T11:03:09;5.10;99.90
20380;DHT22;10349;48.666;8.948;2024-01-06T11:05:36;5.10;99.90
20380;DHT22;10349;48.666;8.948;2024-01-06T11:08:04;5.10;99.90
20380;DHT22;10349;48.666;8.948;2024-01-06T11:10:30;5.00;99.90
20380;DHT22;10349;48.666;8.948;2024-01-06T11:13:14;5.00;99.90
20380;DHT22;10349;48.666;8.948;2024-01-06T11:15:44;5.10;99.90
20380;DHT22;10349;48.666;8.948;2024-01-06T11:23:38;5.00;99.90
20380;DHT22;10349;48.666;8.948;2024-01-06T11:26:03;5.00;99.90
20380;DHT22;10349;48.666;8.948;2024-01-06T11:28:31;5.00;99.90
20380;DHT22;10349;48.666;8.948;2024-01-06T11:31:09;5.00;99.90
20380;DHT22;10349;48.666;8.948;2024-01-06T11:33:42;4.90;99.90
20380;DHT22;10349;48.666;8.948;2024-01-06T11:36:08;5.00;99.90
20380;DHT22;10349;48.666;8.948;2024-01-06T11:38:38;5.00;99.90
20380;DHT22;10349;48.666;8.948;2024-01-06T11:41:05;5.10;99.90
20380;DHT22;10349;48.666;8.948;2024-01-06T11:43:34;5.10;99.90
20380;DHT22;10349;48.666;8.948;2024-01-06T11:46:01;5.20;99.90
20380;DHT22;10349;48.666;8.948;2024-01-06T11:48:29;5.30;99.90
20380;DHT22;10349;48.666;8.948;2024-01-06T11:50:57;5.40;99.90
20380;DHT22;10349;48.666;8.948;2024-01-06T11:53:26;5.40;99.90
20380;DHT22;10349;48.666;8.948;2024-01-06T11:55:52;5.40;99.90
20380;DHT22;10349;48.666;8.948;2024-01-06T11:58:18;5.30;99.90
20380;DHT22;10349;48.666;8.948;2024-01-06T12:00:43;5.30;99.90
20380;DHT22;10349;48.666;8.948;2024-01-06T12:03:09;5.40;99.90
20380;DHT22;10349;48.666;8.948;2024-01-06T12:05:35;5.30;99.90
20380;DHT22;10349;48.666;8.948;2024-01-06T12:08:03;5.30;99.90
20380;DHT22;10349;48.666;8.948;2024-01-06T12:10:32;5.40;99.90
20380;DHT22;10349;48.666;8.948;2024-01-06T12:13:03;5.30;99.90
20380;DHT22;10349;48.666;8.948;2024-01-06T12:15:32;5.30;99.90
20380;DHT22;10349;48.666;8.948;2024-01-06T12:17:58;5.30;99.90
20380;DHT22;10349;48.666;8.948;2024-01-06T12:20:26;5.30;99.90
20380;DHT22;10349;48.666;8.948;2024-01-06T12:22:52;5.30;99.90
20380;DHT22;10349;48.666;8.948;2024-01-06T12:25:20;5.30;99.90
20380;DHT22;10349;48.666;8.948;2024-01-06T12:27:46;5.30;99.90
20380;DHT22;10349;48.666;8.948;2024-01-06T12:30:16;5.30;99.90
20380;DHT22;10349;48.666;8.948;2024-01-06T12:32:48;5.30;99.90
20380;DHT22;10349;48.666;8.948;2024-01-06T12:35:15;5.30;99.90
20380;DHT22;10349;48.666;8.948;2024-01-06T12:37:42;5.40;99.90
20380;DHT22;10349;48.666;8.948;2024-01-06T12:40:15;5.50;99.90
20380;DHT22;10349;48.666;8.948;2024-01-06T12:42:43;5.50;99.90
20380;DHT22;10349;48.666;8.948;2024-01-06T12:45:09;5.50;99.90
20380;DHT22;10349;48.666;8.948;2024-01-06T12:47:36;5.50;99.90
20380;DHT22;10349;48.666;8.948;2024-01-06T12:50:02;5.50;99.90
20380;DHT22;10349;48.666;8.948;2024-01-06T12:52:30;5.50;99.90
20380;DHT22;10349;48.666;8.948;2024-01-06T12:54:55;5.50;99.90
20380;DHT22;10349;48.666;8.948;2024-01-06T12:57:21;5.40;99.90
20380;DHT22;10349;48.666;8.948;2024-01-06T12:59:47;5.40;99.90
20380;DHT22;10349;48.666;8.948;2024-01-06T13:02:12;5.60;99.90
20380;DHT22;10349;48.666;8.948;2024-01-06T13:04:38;5.60;99.90
20380;DHT22;10349;48.666;8.948;2024-01-06T13:07:04;5.60;99.90
20380;DHT22;10349;48.666;8.948;2024-01-06T13:09:29;5.60;99.90
20380;DHT22;10349;48.666;8.948;2024-01-06T13:11:55;5.50;99.90
20380;DHT22;10349;48.666;8.948;2024-01-06T13:14:28;5.50;99.90
20380;DHT22;10349;48.666;8.948;2024-01-06T13:16:55;5.40;99.90
20380;DHT22;10349;48.666;8.948;2024-01-06T13:19:21;5.40;99.90
20380;DHT22;10349;48.666;8.948;2024-01-06T13:21:47;5.30;99.90
20380;DHT22;10349;48.666;8.948;2024-01-06T13:24:12;5.40;99.90
20380;DHT22;10349;48.666;8.948;2024-01-06T13:26:38;5.30;99.90
20380;DHT22;10349;48.666;8.948;2024-01-06T13:29:04;5.30;99.90
20380;DHT22;10349;48.666;8.948;2024-01-06T13:31:30;5.20;99.90
20380;DHT22;10349;48.666;8.948;2024-01-06T13:33:56;5.20;99.90
20380;DHT22;10349;48.666;8.948;2024-01-06T13:36:22;5.20;99.90
20380;DHT22;10349;48.666;8.948;2024-01-06T13:38:48;5.10;99.90
20380;DHT22;10349;48.666;8.948;2024-01-06T13:41:14;5.20;99.90
20380;DHT22;10349;48.666;8.948;2024-01-06T13:43:40;5.10;99.90
20380;DHT22;10349;48.666;8.948;2024-01-06T13:46:06;5.10;99.90
20380;DHT22;10349;48.666;8.948;2024-01-06T13:48:31;5.10;99.90
20380;DHT22;10349;48.666;8.948;2024-01-06T13:50:57;5.00;99.90
20380;DHT22;10349;48.666;8.948;2024-01-06T13:53:24;5.00;99.90
20380;DHT22;10349;48.666;8.948;2024-01-06T13:55:50;5.00;99.90
20380;DHT22;10349;48.666;8.948;2024-01-06T13:58:15;5.10;99.90
20380;DHT22;10349;48.666;8.948;2024-01-06T14:00:43;5.00;99.90
20380;DHT22;10349;48.666;8.948;2024-01-06T14:03:08;4.90;99.90
20380;DHT22;10349;48.666;8.948;2024-01-06T14:05:34;4.90;99.90
20380;DHT22;10349;48.666;8.948;2024-01-06T14:08:00;4.90;99.90
20380;DHT22;10349;48.666;8.948;2024-01-06T14:10:26;4.90;99.90
20380;DHT22;10349;48.666;8.948;2024-01-06T14:12:53;4.90;99.90
20380;DHT22;10349;48.666;8.948;2024-01-06T14:15:19;4.90;99.90
20380;DHT22;10349;48.666;8.948;2024-01-06T14:17:45;4.90;99.90
20380;DHT22;10349;48.666;8.948;2024-01-06T14:20:15;4.90;99.90
20380;DHT22;10349;48.666;8.948;2024-01-06T14:22:44;4.90;99.90
20380;DHT22;10349;48.666;8.948;2024-01-06T14:25:10;4.90;99.90
20380;DHT22;10349;48.666;8.948;2024-01-06T14:27:35;4.90;99.90
20380;DHT22;10349;48.666;8.948;2024-01-06T14:30:01;4.90;99.90
20380;DHT22;10349;48.666;8.948;2024-01-06T14:32:27;4.80;99.90
20380;DHT22;10349;48.666;8.948;2024-01-06T14:34:52;4.70;99.90
20380;DHT22;10349;48.666;8.948;2024-01-06T14:37:18;4.60;99.90
20380;DHT22;10349;48.666;8.948;2024-01-06T14:39:44;4.60;99.90
20380;DHT22;10349;48.666;8.948;2024-01-06T14:42:10;4.60;99.90
20380;DHT22;10349;48.666;8.948;2024-01-06T14:44:35;4.50;99.90
20380;DHT22;10349;48.666;8.948;2024-01-06T14:47:01;4.40;99.90
20380;DHT22;10349;48.666;8.948;2024-01-06T14:49:27;4.40;99.90
20380;DHT22;10349;48.666;8.948;2024-01-06T14:51:52;4.40;99.90
20380;DHT22;10349;48.666;8.948;2024-01-06T14:54:18;4.40;99.90
20380;DHT22;10349;48.666;8.948;2024-01-06T14:56:44;4.40;99.90
20380;DHT22;10349;48.666;8.948;2024-01-06T14:59:09;4.40;99.90
20380;DHT22;10349;48.666;8.948;2024-01-06T15:01:35;4.40;99.90
20380;DHT22;10349;48.666;8.948;2024-01-06T15:04:01;4.30;99.90
20380;DHT22;10349;48.666;8.948;2024-01-06T15:06:26;4.20;99.90
20380;DHT22;10349;48.666;8.948;2024-01-06T15:08:52;4.20;99.90
20380;DHT22;10349;48.666;8.948;2024-01-06T15:11:19;4.30;99.90
20380;DHT22;10349;48.666;8.948;2024-01-06T15:13:45;4.20;99.90
20380;DHT22;10349;48.666;8.948;2024-01-06T15:16:11;4.30;99.90
20380;DHT22;10349;48.666;8.948;2024-01-06T15:18:37;4.30;99.90
20380;DHT22;10349;48.666;8.948;2024-01-06T15:21:04;4.30;99.90
20380;DHT22;10349;48.666;8.948;2024-01-06T15:23:30;4.30;99.90
20380;DHT22;10349;48.666;8.948;2024-01-06T15:25:56;4.30;99.90
20380;DHT22;10349;48.666;8.948;2024-01-06T15:28:22;4.30;99.90
20380;DHT22;10349;48.666;8.948;2024-01-06T15:30:48;4.30;99.90
20380;DHT22;10349;48.666;8.948;2024-01-06T15:33:13;4.30;99.90
20380;DHT22;10349;48.666;8.948;2024-01-06T15:35:42;4.30;99.90
20380;DHT22;10349;48.666;8.948;2024-01-06T15:38:08;4.30;99.90
20380;DHT22;10349;48.666;8.948;2024-01-06T15:40:34;4.20;99.90
20380;DHT22;10349;48.666;8.948;2024-01-06T15:42:59;4.20;99.90
20380;DHT22;10349;48.666;8.948;2024-01-06T15:45:25;4.10;99.90
20380;DHT22;10349;48.666;8.948;2024-01-06T15:47:51;4.20;99.90